sensor_id;sensor_type;location;lat;lon;timestamp;pressure;altitude;pressure_sealevel;temperature;humidity
9129;BME280;4599;50.906;6.786;2023-04-22T00:01:15;16958.81;;;-142.83;86.66
9129;BME280;4599;50.906;6.786;2023-04-22T00:05:17;16971.09;;;-142.83;86.03
9129;BME280;4599;50.906;6.786;2023-04-22T00:09:21;16983.38;;;-142.83;85.81
9129;BME280;4599;50.906;6.786;2023-04-22T00:13:22;16958.81;;;-142.83;86.72
9129;BME280;4599;50.906;6.786;2023-04-22T00:17:25;16981.31;;;-142.83;87.08
9129;BME280;4599;50.906;6.786;2023-04-22T00:21:27;16962.91;;;-142.83;86.56
9129;BME280;4599;50.906;6.786;2023-04-22T00:25:28;16973.13;;;-142.83;86.68
9129;BME280;4599;50.906;6.786;2023-04-22T00:29:29;16987.44;;;-142.83;86.18
9129;BME280;4599;50.906;6.786;2023-04-22T00:33:33;16954.72;;;-142.83;87.36
9129;BME280;4599;50.906;6.786;2023-04-22T00:37:35;16993.59;;;-142.83;87.11
9129;BME280;4599;50.906;6.786;2023-04-22T00:41:37;16985.41;;;-142.83;87.43
9129;BME280;4599;50.906;6.786;2023-04-22T00:45:39;16969.03;;;-142.83;87.13
9129;BME280;4599;50.906;6.786;2023-04-22T00:49:44;16967.00;;;-142.83;86.92
9129;BME280;4599;50.906;6.786;2023-04-22T00:53:46;16969.03;;;-142.83;86.07
9129;BME280;4599;50.906;6.786;2023-04-22T00:57:48;16975.19;;;-142.83;85.27
9129;BME280;4599;50.906;6.786;2023-04-22T01:01:51;17014.03;;;-142.83;86.36
9129;BME280;4599;50.906;6.786;2023-04-22T01:05:53;17007.91;;;-142.83;85.74
9129;BME280;4599;50.906;6.786;2023-04-22T01:09:56;17014.03;;;-142.83;84.99
9129;BME280;4599;50.906;6.786;2023-04-22T01:13:58;16989.50;;;-142.83;84.78
9129;BME280;4599;50.906;6.786;2023-04-22T01:17:59;17007.91;;;-142.83;84.91
9129;BME280;4599;50.906;6.786;2023-04-22T01:22:02;17020.19;;;-142.83;84.71
9129;BME280;4599;50.906;6.786;2023-04-22T01:26:06;17005.84;;;-142.83;85.39
9129;BME280;4599;50.906;6.786;2023-04-22T01:30:08;16967.00;;;-142.83;85.88
9129;BME280;4599;50.906;6.786;2023-04-22T01:34:10;16971.09;;;-142.83;87.14
9129;BME280;4599;50.906;6.786;2023-04-22T01:38:12;17012.00;;;-142.83;87.20
9129;BME280;4599;50.906;6.786;2023-04-22T01:42:15;16981.31;;;-142.83;86.77
9129;BME280;4599;50.906;6.786;2023-04-22T01:46:16;16991.53;;;-142.83;85.67
9129;BME280;4599;50.906;6.786;2023-04-22T01:50:18;17016.09;;;-142.83;84.41
9129;BME280;4599;50.906;6.786;2023-04-22T01:54:20;17016.09;;;-142.83;83.99
9129;BME280;4599;50.906;6.786;2023-04-22T01:58:23;17020.19;;;-142.83;85.36
9129;BME280;4599;50.906;6.786;2023-04-22T02:02:25;16985.41;;;-142.83;84.37
9129;BME280;4599;50.906;6.786;2023-04-22T02:06:26;17048.81;;;-142.83;82.11
9129;BME280;4599;50.906;6.786;2023-04-22T02:10:28;17032.44;;;-142.83;82.63
9129;BME280;4599;50.906;6.786;2023-04-22T02:14:31;17022.22;;;-142.83;83.32
9129;BME280;4599;50.906;6.786;2023-04-22T02:18:32;17003.81;;;-142.83;85.08
9129;BME280;4599;50.906;6.786;2023-04-22T02:22:34;16981.31;;;-142.83;85.33
9129;BME280;4599;50.906;6.786;2023-04-22T02:26:35;16993.59;;;-142.83;85.66
9129;BME280;4599;50.906;6.786;2023-04-22T02:30:38;17012.00;;;-142.83;86.13
9129;BME280;4599;50.906;6.786;2023-04-22T02:34:41;17007.91;;;-142.83;85.97
9129;BME280;4599;50.906;6.786;2023-04-22T02:38:43;16989.50;;;-142.83;85.22
9129;BME280;4599;50.906;6.786;2023-04-22T02:42:44;17001.78;;;-142.83;85.21
9129;BME280;4599;50.906;6.786;2023-04-22T02:46:47;16985.41;;;-142.83;85.43
9129;BME280;4599;50.906;6.786;2023-04-22T02:50:48;17001.78;;;-142.83;85.76
9129;BME280;4599;50.906;6.786;2023-04-22T02:54:50;16983.38;;;-142.83;86.58
9129;BME280;4599;50.906;6.786;2023-04-22T02:58:51;16995.63;;;-142.83;85.81
9129;BME280;4599;50.906;6.786;2023-04-22T03:02:54;16995.63;;;-142.83;85.52
9129;BME280;4599;50.906;6.786;2023-04-22T03:06:55;16983.38;;;-142.83;86.10
9129;BME280;4599;50.906;6.786;2023-04-22T03:10:57;16993.59;;;-142.83;84.67
9129;BME280;4599;50.906;6.786;2023-04-22T03:14:58;17020.19;;;-142.83;85.20
9129;BME280;4599;50.906;6.786;2023-04-22T03:19:01;17003.81;;;-142.83;85.02
9129;BME280;4599;50.906;6.786;2023-04-22T03:23:02;17022.22;;;-142.83;85.02
9129;BME280;4599;50.906;6.786;2023-04-22T03:27:04;17001.78;;;-142.83;83.49
9129;BME280;4599;50.906;6.786;2023-04-22T03:31:06;17016.09;;;-142.83;82.71
9129;BME280;4599;50.906;6.786;2023-04-22T03:35:09;17009.94;;;-142.83;83.43
9129;BME280;4599;50.906;6.786;2023-04-22T03:39:11;17048.81;;;-142.83;84.34
9129;BME280;4599;50.906;6.786;2023-04-22T03:43:14;17012.00;;;-142.83;84.42
9129;BME280;4599;50.906;6.786;2023-04-22T03:47:15;17026.31;;;-142.83;84.53
9129;BME280;4599;50.906;6.786;2023-04-22T03:51:19;17012.00;;;-142.83;83.46
9129;BME280;4599;50.906;6.786;2023-04-22T03:55:20;17009.94;;;-142.83;82.71
9129;BME280;4599;50.906;6.786;2023-04-22T03:59:22;17044.72;;;-142.83;82.80
9129;BME280;4599;50.906;6.786;2023-04-22T04:03:23;17014.03;;;-142.83;82.85
9129;BME280;4599;50.906;6.786;2023-04-22T04:07:28;17022.22;;;-142.83;83.73
9129;BME280;4599;50.906;6.786;2023-04-22T04:11:29;17003.81;;;-142.83;84.25
9129;BME280;4599;50.906;6.786;2023-04-22T04:15:31;17048.81;;;-142.83;82.92
9129;BME280;4599;50.906;6.786;2023-04-22T04:19:33;17024.25;;;-142.83;82.31
9129;BME280;4599;50.906;6.786;2023-04-22T04:23:35;17022.22;;;-142.83;82.04
9129;BME280;4599;50.906;6.786;2023-04-22T04:27:37;17044.72;;;-142.83;82.45
9129;BME280;4599;50.906;6.786;2023-04-22T04:31:38;17073.34;;;-142.83;82.10
9129;BME280;4599;50.906;6.786;2023-04-22T04:35:40;17065.16;;;-142.83;81.60
9129;BME280;4599;50.906;6.786;2023-04-22T04:39:43;17061.09;;;-142.83;81.33
9129;BME280;4599;50.906;6.786;2023-04-22T04:43:44;17057.00;;;-142.83;80.75
9129;BME280;4599;50.906;6.786;2023-04-22T04:47:45;17036.53;;;-142.83;80.51
9129;BME280;4599;50.906;6.786;2023-04-22T04:51:47;17046.75;;;-142.83;80.31
9129;BME280;4599;50.906;6.786;2023-04-22T04:55:50;17077.44;;;-142.83;79.99
9129;BME280;4599;50.906;6.786;2023-04-22T04:59:52;17077.44;;;-142.83;80.24
9129;BME280;4599;50.906;6.786;2023-04-22T05:03:55;17069.25;;;-142.83;79.43
9129;BME280;4599;50.906;6.786;2023-04-22T05:07:57;17097.91;;;-142.83;78.86
9129;BME280;4599;50.906;6.786;2023-04-22T05:12:00;17089.72;;;-142.83;78.63
9129;BME280;4599;50.906;6.786;2023-04-22T05:16:02;17104.03;;;-142.83;78.28
9129;BME280;4599;50.906;6.786;2023-04-22T05:20:04;17112.22;;;-142.83;78.15
9129;BME280;4599;50.906;6.786;2023-04-22T05:24:06;17097.91;;;-142.83;78.01
9129;BME280;4599;50.906;6.786;2023-04-22T05:28:09;17118.34;;;-142.83;78.40
9129;BME280;4599;50.906;6.786;2023-04-22T05:32:10;17126.53;;;-142.83;77.46
9129;BME280;4599;50.906;6.786;2023-04-22T05:36:12;17097.91;;;-142.83;77.18
9129;BME280;4599;50.906;6.786;2023-04-22T05:40:13;17099.94;;;-142.83;77.46
9129;BME280;4599;50.906;6.786;2023-04-22T05:44:16;17085.63;;;-142.83;77.32
9129;BME280;4599;50.906;6.786;2023-04-22T05:48:18;17120.41;;;-142.83;77.84
9129;BME280;4599;50.906;6.786;2023-04-22T05:52:19;17097.91;;;-142.83;77.89
9129;BME280;4599;50.906;6.786;2023-04-22T05:56:20;17097.91;;;-142.83;78.82
9129;BME280;4599;50.906;6.786;2023-04-22T06:00:23;17134.72;;;-142.83;78.71
9129;BME280;4599;50.906;6.786;2023-04-22T06:04:25;17126.53;;;-142.83;78.70
9129;BME280;4599;50.906;6.786;2023-04-22T06:08:28;17163.34;;;-142.83;76.10
9129;BME280;4599;50.906;6.786;2023-04-22T06:12:31;17155.16;;;-142.83;76.62
9129;BME280;4599;50.906;6.786;2023-04-22T06:16:34;17194.03;;;-142.83;74.23
9129;BME280;4599;50.906;6.786;2023-04-22T06:20:36;17566.28;;;-142.83;62.63
9129;BME280;4599;50.906;6.786;2023-04-22T06:24:37;17912.00;;;-142.83;56.92
9129;BME280;4599;50.906;6.786;2023-04-22T06:28:39;17983.59;;;-142.83;50.87
9129;BME280;4599;50.906;6.786;2023-04-22T06:32:42;18190.22;;;-142.83;50.40
9129;BME280;4599;50.906;6.786;2023-04-22T06:36:43;18114.53;;;-142.83;47.94
9129;BME280;4599;50.906;6.786;2023-04-22T06:40:44;17678.81;;;-142.83;56.70
9129;BME280;4599;50.906;6.786;2023-04-22T06:44:46;17519.25;;;-142.83;59.98
9129;BME280;4599;50.906;6.786;2023-04-22T06:48:49;17427.19;;;-142.83;62.66
9129;BME280;4599;50.906;6.786;2023-04-22T06:52:51;17447.66;;;-142.83;63.88
9129;BME280;4599;50.906;6.786;2023-04-22T06:56:53;17736.06;;;-142.83;57.62
9129;BME280;4599;50.906;6.786;2023-04-22T07:00:55;18278.19;;;-142.83;48.68
9129;BME280;4599;50.906;6.786;2023-04-22T07:04:58;18419.38;;;-142.83;45.88
9129;BME280;4599;50.906;6.786;2023-04-22T07:08:59;18468.47;;;-142.83;44.59
9129;BME280;4599;50.906;6.786;2023-04-22T07:13:01;18509.41;;;-142.83;44.70
9129;BME280;4599;50.906;6.786;2023-04-22T07:17:02;18272.06;;;-142.83;45.49
9129;BME280;4599;50.906;6.786;2023-04-22T07:21:05;18370.28;;;-142.83;44.18
9129;BME280;4599;50.906;6.786;2023-04-22T07:25:07;18509.41;;;-142.83;43.16
9129;BME280;4599;50.906;6.786;2023-04-22T07:29:09;18364.13;;;-142.83;43.77
9129;BME280;4599;50.906;6.786;2023-04-22T07:33:11;18497.13;;;-142.83;42.06
9129;BME280;4599;50.906;6.786;2023-04-22T07:37:14;18628.06;;;-142.83;40.31
9129;BME280;4599;50.906;6.786;2023-04-22T07:41:15;18572.81;;;-142.83;41.48
9129;BME280;4599;50.906;6.786;2023-04-22T07:45:17;18632.16;;;-142.83;41.32
9129;BME280;4599;50.906;6.786;2023-04-22T07:49:19;18734.47;;;-142.83;39.98
9129;BME280;4599;50.906;6.786;2023-04-22T07:53:22;18754.94;;;-142.83;39.46
9129;BME280;4599;50.906;6.786;2023-04-22T07:57:24;18775.38;;;-142.83;38.95
9129;BME280;4599;50.906;6.786;2023-04-22T08:01:26;18851.09;;;-142.83;39.08
9129;BME280;4599;50.906;6.786;2023-04-22T08:05:27;18597.38;;;-142.83;40.44
9129;BME280;4599;50.906;6.786;2023-04-22T08:09:30;18488.94;;;-142.83;41.68
9129;BME280;4599;50.906;6.786;2023-04-22T08:13:31;18693.53;;;-142.83;40.17
9129;BME280;4599;50.906;6.786;2023-04-22T08:17:33;18628.06;;;-142.83;40.60
9129;BME280;4599;50.906;6.786;2023-04-22T08:21:35;18664.91;;;-142.83;41.39
9129;BME280;4599;50.906;6.786;2023-04-22T08:25:37;18431.66;;;-142.83;41.78
9129;BME280;4599;50.906;6.786;2023-04-22T08:29:39;18355.94;;;-142.83;42.97
9129;BME280;4599;50.906;6.786;2023-04-22T08:33:41;18362.09;;;-142.83;42.01
9129;BME280;4599;50.906;6.786;2023-04-22T08:37:43;18382.53;;;-142.83;41.61
9129;BME280;4599;50.906;6.786;2023-04-22T08:41:46;18317.06;;;-142.83;43.47
9129;BME280;4599;50.906;6.786;2023-04-22T08:45:49;18683.31;;;-142.83;40.47
9129;BME280;4599;50.906;6.786;2023-04-22T08:49:53;18761.06;;;-142.83;38.96
9129;BME280;4599;50.906;6.786;2023-04-22T08:53:55;18820.41;;;-142.83;38.22
9129;BME280;4599;50.906;6.786;2023-04-22T08:57:59;19037.31;;;-142.83;35.97
9129;BME280;4599;50.906;6.786;2023-04-22T09:02:01;18836.78;;;-142.83;37.67
9129;BME280;4599;50.906;6.786;2023-04-22T09:06:05;18920.66;;;-142.83;36.55
9129;BME280;4599;50.906;6.786;2023-04-22T09:10:08;19090.50;;;-142.83;36.00
9129;BME280;4599;50.906;6.786;2023-04-22T09:14:11;19102.78;;;-142.83;35.58
9129;BME280;4599;50.906;6.786;2023-04-22T09:18:16;19158.03;;;-142.83;35.16
9129;BME280;4599;50.906;6.786;2023-04-22T09:22:17;19196.91;;;-142.83;35.79
9129;BME280;4599;50.906;6.786;2023-04-22T09:26:20;19184.66;;;-142.83;34.38
9129;BME280;4599;50.906;6.786;2023-04-22T09:30:28;19317.66;;;-142.83;34.26
9129;BME280;4599;50.906;6.786;2023-04-22T09:34:30;19008.66;;;-142.83;35.44
9129;BME280;4599;50.906;6.786;2023-04-22T09:38:31;18775.38;;;-142.83;36.02
9129;BME280;4599;50.906;6.786;2023-04-22T09:42:46;18982.06;;;-142.83;35.48
9129;BME280;4599;50.906;6.786;2023-04-22T09:46:49;18939.09;;;-142.83;36.49
9129;BME280;4599;50.906;6.786;2023-04-22T09:50:51;19182.59;;;-142.83;34.12
9129;BME280;4599;50.906;6.786;2023-04-22T09:54:53;19117.13;;;-142.83;34.61
9129;BME280;4599;50.906;6.786;2023-04-22T09:58:54;19264.44;;;-142.83;34.41
9129;BME280;4599;50.906;6.786;2023-04-22T10:02:57;18910.44;;;-142.83;36.11
9129;BME280;4599;50.906;6.786;2023-04-22T10:06:59;18754.94;;;-142.83;36.44
9129;BME280;4599;50.906;6.786;2023-04-22T10:11:01;18781.53;;;-142.83;36.83
9129;BME280;4599;50.906;6.786;2023-04-22T10:15:03;18754.94;;;-142.83;36.06
9129;BME280;4599;50.906;6.786;2023-04-22T10:19:08;18943.19;;;-142.83;36.11
9129;BME280;4599;50.906;6.786;2023-04-22T10:23:13;19153.94;;;-142.83;34.31
9129;BME280;4599;50.906;6.786;2023-04-22T10:27:20;19184.66;;;-142.83;33.96
9129;BME280;4599;50.906;6.786;2023-04-22T10:31:21;19170.31;;;-142.83;34.18
9129;BME280;4599;50.906;6.786;2023-04-22T10:35:27;19194.88;;;-142.83;34.36
9129;BME280;4599;50.906;6.786;2023-04-22T10:39:29;19217.38;;;-142.83;33.82
9129;BME280;4599;50.906;6.786;2023-04-22T10:43:41;19059.81;;;-142.83;34.70
9129;BME280;4599;50.906;6.786;2023-04-22T10:47:42;19096.66;;;-142.83;35.45
9129;BME280;4599;50.906;6.786;2023-04-22T10:51:47;19196.91;;;-142.83;35.47
9129;BME280;4599;50.906;6.786;2023-04-22T10:55:50;19303.34;;;-142.83;34.83
9129;BME280;4599;50.906;6.786;2023-04-22T10:59:54;19307.44;;;-142.83;33.77
9129;BME280;4599;50.906;6.786;2023-04-22T11:04:18;19368.81;;;-142.83;33.33
9129;BME280;4599;50.906;6.786;2023-04-22T11:08:26;18939.09;;;-142.83;34.88
9129;BME280;4599;50.906;6.786;2023-04-22T11:12:41;19027.06;;;-142.83;35.26
9129;BME280;4599;50.906;6.786;2023-04-22T11:16:45;19082.31;;;-142.83;35.08
9129;BME280;4599;50.906;6.786;2023-04-22T11:20:47;19094.59;;;-142.83;35.04
9129;BME280;4599;50.906;6.786;2023-04-22T11:24:54;18971.81;;;-142.83;35.31
9129;BME280;4599;50.906;6.786;2023-04-22T11:28:58;19012.75;;;-142.83;35.66
9129;BME280;4599;50.906;6.786;2023-04-22T11:33:00;19068.00;;;-142.83;35.34
9129;BME280;4599;50.906;6.786;2023-04-22T11:37:01;19090.50;;;-142.83;35.29
9129;BME280;4599;50.906;6.786;2023-04-22T11:41:04;18977.97;;;-142.83;35.85
9129;BME280;4599;50.906;6.786;2023-04-22T11:45:07;18924.75;;;-142.83;36.08
9129;BME280;4599;50.906;6.786;2023-04-22T11:49:15;18736.50;;;-142.83;36.72
9129;BME280;4599;50.906;6.786;2023-04-22T11:53:18;18601.47;;;-142.83;38.74
9129;BME280;4599;50.906;6.786;2023-04-22T11:57:21;18587.16;;;-142.83;38.64
9129;BME280;4599;50.906;6.786;2023-04-22T12:01:22;18591.25;;;-142.83;38.76
9129;BME280;4599;50.906;6.786;2023-04-22T12:05:34;18521.66;;;-142.83;39.21
9129;BME280;4599;50.906;6.786;2023-04-22T12:09:37;18523.72;;;-142.83;39.97
9129;BME280;4599;50.906;6.786;2023-04-22T12:13:43;18493.03;;;-142.83;40.20
9129;BME280;4599;50.906;6.786;2023-04-22T12:17:45;18609.66;;;-142.83;39.98
9129;BME280;4599;50.906;6.786;2023-04-22T12:21:46;18603.50;;;-142.83;39.98
9129;BME280;4599;50.906;6.786;2023-04-22T12:25:48;18558.50;;;-142.83;40.46
9129;BME280;4599;50.906;6.786;2023-04-22T12:29:52;18529.84;;;-142.83;40.91
9129;BME280;4599;50.906;6.786;2023-04-22T12:33:55;18550.31;;;-142.83;40.44
9129;BME280;4599;50.906;6.786;2023-04-22T12:37:57;18548.28;;;-142.83;40.10
9129;BME280;4599;50.906;6.786;2023-04-22T12:41:58;18519.63;;;-142.83;40.38
9129;BME280;4599;50.906;6.786;2023-04-22T12:46:01;18480.75;;;-142.83;40.64
9129;BME280;4599;50.906;6.786;2023-04-22T12:50:03;18409.16;;;-142.83;41.29
9129;BME280;4599;50.906;6.786;2023-04-22T12:54:05;18394.81;;;-142.83;40.71
9129;BME280;4599;50.906;6.786;2023-04-22T12:58:06;18398.91;;;-142.83;41.54
9129;BME280;4599;50.906;6.786;2023-04-22T13:02:09;18349.81;;;-142.83;43.01
9129;BME280;4599;50.906;6.786;2023-04-22T13:06:11;18370.28;;;-142.83;42.04
9129;BME280;4599;50.906;6.786;2023-04-22T13:10:14;18304.81;;;-142.83;44.48
9129;BME280;4599;50.906;6.786;2023-04-22T13:14:16;18241.38;;;-142.83;44.83
9129;BME280;4599;50.906;6.786;2023-04-22T13:18:20;18194.31;;;-142.83;46.07
9129;BME280;4599;50.906;6.786;2023-04-22T13:22:22;18182.03;;;-142.83;45.03
9129;BME280;4599;50.906;6.786;2023-04-22T13:26:23;18139.09;;;-142.83;47.04
9129;BME280;4599;50.906;6.786;2023-04-22T13:30:25;18163.63;;;-142.83;45.25
9129;BME280;4599;50.906;6.786;2023-04-22T13:34:27;18184.09;;;-142.83;44.38
9129;BME280;4599;50.906;6.786;2023-04-22T13:38:29;18128.84;;;-142.83;46.07
9129;BME280;4599;50.906;6.786;2023-04-22T13:42:31;18167.72;;;-142.83;44.87
9129;BME280;4599;50.906;6.786;2023-04-22T13:46:32;18149.31;;;-142.83;45.59
9129;BME280;4599;50.906;6.786;2023-04-22T13:50:35;18124.75;;;-142.83;45.57
9129;BME280;4599;50.906;6.786;2023-04-22T13:54:37;18110.44;;;-142.83;46.71
9129;BME280;4599;50.906;6.786;2023-04-22T13:58:39;18081.81;;;-142.83;47.14
9129;BME280;4599;50.906;6.786;2023-04-22T14:02:41;18114.53;;;-142.83;45.55
9129;BME280;4599;50.906;6.786;2023-04-22T14:06:43;18145.22;;;-142.83;45.82
9129;BME280;4599;50.906;6.786;2023-04-22T14:10:45;18100.22;;;-142.83;46.88
9129;BME280;4599;50.906;6.786;2023-04-22T14:14:46;18104.31;;;-142.83;46.78
9129;BME280;4599;50.906;6.786;2023-04-22T14:18:48;18132.94;;;-142.83;47.24
9129;BME280;4599;50.906;6.786;2023-04-22T14:22:51;18094.06;;;-142.83;47.70
9129;BME280;4599;50.906;6.786;2023-04-22T14:26:53;18104.31;;;-142.83;47.05
9129;BME280;4599;50.906;6.786;2023-04-22T14:30:55;18063.38;;;-142.83;47.98
9129;BME280;4599;50.906;6.786;2023-04-22T14:34:57;18083.84;;;-142.83;47.31
9129;BME280;4599;50.906;6.786;2023-04-22T14:39:00;18047.03;;;-142.83;47.77
9129;BME280;4599;50.906;6.786;2023-04-22T14:43:04;18004.06;;;-142.83;51.43
9129;BME280;4599;50.906;6.786;2023-04-22T14:47:06;17971.31;;;-142.83;54.56
9129;BME280;4599;50.906;6.786;2023-04-22T14:51:07;17899.72;;;-142.83;57.47
9129;BME280;4599;50.906;6.786;2023-04-22T14:55:10;17879.28;;;-142.83;61.98
9129;BME280;4599;50.906;6.786;2023-04-22T14:59:23;17768.81;;;-142.83;66.39
9129;BME280;4599;50.906;6.786;2023-04-22T15:03:24;17768.81;;;-142.83;67.99
9129;BME280;4599;50.906;6.786;2023-04-22T15:07:26;17746.31;;;-142.83;69.43
9129;BME280;4599;50.906;6.786;2023-04-22T15:11:29;17748.34;;;-142.83;65.36
9129;BME280;4599;50.906;6.786;2023-04-22T15:15:31;17840.41;;;-142.83;59.09
9129;BME280;4599;50.906;6.786;2023-04-22T15:19:32;17817.91;;;-142.83;59.38
9129;BME280;4599;50.906;6.786;2023-04-22T15:23:33;17781.09;;;-142.83;59.45
9129;BME280;4599;50.906;6.786;2023-04-22T15:27:37;17842.44;;;-142.83;58.40
9129;BME280;4599;50.906;6.786;2023-04-22T15:31:38;17891.53;;;-142.83;54.98
9129;BME280;4599;50.906;6.786;2023-04-22T15:35:40;17862.91;;;-142.83;55.25
9129;BME280;4599;50.906;6.786;2023-04-22T15:39:42;17801.53;;;-142.83;58.50
9129;BME280;4599;50.906;6.786;2023-04-22T15:43:44;17795.41;;;-142.83;60.63
9129;BME280;4599;50.906;6.786;2023-04-22T15:47:46;17817.91;;;-142.83;60.16
9129;BME280;4599;50.906;6.786;2023-04-22T15:51:48;17785.16;;;-142.83;61.48
9129;BME280;4599;50.906;6.786;2023-04-22T15:55:49;17713.56;;;-142.83;61.14
9129;BME280;4599;50.906;6.786;2023-04-22T15:59:52;17719.72;;;-142.83;62.04
9129;BME280;4599;50.906;6.786;2023-04-22T16:04:11;17727.91;;;-142.83;59.75
9129;BME280;4599;50.906;6.786;2023-04-22T16:08:12;17752.44;;;-142.83;58.89
9129;BME280;4599;50.906;6.786;2023-04-22T16:12:14;17738.13;;;-142.83;59.24
9129;BME280;4599;50.906;6.786;2023-04-22T16:16:17;17736.06;;;-142.83;61.21
9129;BME280;4599;50.906;6.786;2023-04-22T16:20:19;17721.75;;;-142.83;59.23
9129;BME280;4599;50.906;6.786;2023-04-22T16:24:20;17721.75;;;-142.83;60.13
9129;BME280;4599;50.906;6.786;2023-04-22T16:28:22;17734.03;;;-142.83;59.67
9129;BME280;4599;50.906;6.786;2023-04-22T16:32:25;17695.16;;;-142.83;63.61
9129;BME280;4599;50.906;6.786;2023-04-22T16:36:26;17723.81;;;-142.83;60.22
9129;BME280;4599;50.906;6.786;2023-04-22T16:40:28;17711.53;;;-142.83;61.87
9129;BME280;4599;50.906;6.786;2023-04-22T16:44:29;17699.25;;;-142.83;61.52
9129;BME280;4599;50.906;6.786;2023-04-22T16:48:32;17660.38;;;-142.83;64.66
9129;BME280;4599;50.906;6.786;2023-04-22T16:52:33;17633.78;;;-142.83;66.65
9129;BME280;4599;50.906;6.786;2023-04-22T16:56:35;17603.13;;;-142.83;69.89
9129;BME280;4599;50.906;6.786;2023-04-22T17:00:36;17633.78;;;-142.83;71.76
9129;BME280;4599;50.906;6.786;2023-04-22T17:04:40;17543.78;;;-142.83;73.26
9129;BME280;4599;50.906;6.786;2023-04-22T17:08:41;17506.97;;;-142.83;75.86
9129;BME280;4599;50.906;6.786;2023-04-22T17:12:43;17472.19;;;-142.83;77.00
9129;BME280;4599;50.906;6.786;2023-04-22T17:16:48;17482.44;;;-142.83;77.82
9129;BME280;4599;50.906;6.786;2023-04-22T17:20:50;17482.44;;;-142.83;79.10
9129;BME280;4599;50.906;6.786;2023-04-22T17:24:52;17468.09;;;-142.83;78.17
9129;BME280;4599;50.906;6.786;2023-04-22T17:28:53;17461.97;;;-142.83;79.07
9129;BME280;4599;50.906;6.786;2023-04-22T17:32:55;17431.28;;;-142.83;80.86
9129;BME280;4599;50.906;6.786;2023-04-22T17:36:58;17447.66;;;-142.83;79.83
9129;BME280;4599;50.906;6.786;2023-04-22T17:41:00;17429.25;;;-142.83;79.88
9129;BME280;4599;50.906;6.786;2023-04-22T17:45:03;17461.97;;;-142.83;79.09
9129;BME280;4599;50.906;6.786;2023-04-22T17:49:04;17449.69;;;-142.83;79.36
9129;BME280;4599;50.906;6.786;2023-04-22T17:53:07;17425.16;;;-142.83;80.13
9129;BME280;4599;50.906;6.786;2023-04-22T17:57:09;17416.97;;;-142.83;80.45
9129;BME280;4599;50.906;6.786;2023-04-22T18:01:10;17404.69;;;-142.83;80.68
9129;BME280;4599;50.906;6.786;2023-04-22T18:05:12;17414.94;;;-142.83;81.37
9129;BME280;4599;50.906;6.786;2023-04-22T18:09:15;17404.69;;;-142.83;79.94
9129;BME280;4599;50.906;6.786;2023-04-22T18:13:17;17437.44;;;-142.83;80.17
9129;BME280;4599;50.906;6.786;2023-04-22T18:17:18;17408.78;;;-142.83;80.49
9129;BME280;4599;50.906;6.786;2023-04-22T18:21:19;17441.53;;;-142.83;80.13
9129;BME280;4599;50.906;6.786;2023-04-22T18:25:22;17398.56;;;-142.83;80.72
9129;BME280;4599;50.906;6.786;2023-04-22T18:29:24;17410.84;;;-142.83;81.51
9129;BME280;4599;50.906;6.786;2023-04-22T18:33:25;17371.97;;;-142.83;81.88
9129;BME280;4599;50.906;6.786;2023-04-22T18:37:27;17376.06;;;-142.83;83.11
9129;BME280;4599;50.906;6.786;2023-04-22T18:41:29;17361.75;;;-142.83;84.60
9129;BME280;4599;50.906;6.786;2023-04-22T18:45:31;17335.16;;;-142.83;84.13
9129;BME280;4599;50.906;6.786;2023-04-22T18:49:33;17343.34;;;-142.83;84.34
9129;BME280;4599;50.906;6.786;2023-04-22T18:53:34;17351.53;;;-142.83;83.57
9129;BME280;4599;50.906;6.786;2023-04-22T18:57:37;17343.34;;;-142.83;83.62
9129;BME280;4599;50.906;6.786;2023-04-22T19:01:39;17386.28;;;-142.83;82.11
9129;BME280;4599;50.906;6.786;2023-04-22T19:05:40;17355.59;;;-142.83;82.17
9129;BME280;4599;50.906;6.786;2023-04-22T19:09:42;17359.69;;;-142.83;82.78
9129;BME280;4599;50.906;6.786;2023-04-22T19:13:45;17345.38;;;-142.83;82.82
9129;BME280;4599;50.906;6.786;2023-04-22T19:17:46;17347.44;;;-142.83;82.52
9129;BME280;4599;50.906;6.786;2023-04-22T19:21:48;17294.25;;;-142.83;84.97
9129;BME280;4599;50.906;6.786;2023-04-22T19:25:49;17355.59;;;-142.83;80.97
9129;BME280;4599;50.906;6.786;2023-04-22T19:29:52;17337.19;;;-142.83;78.66
9129;BME280;4599;50.906;6.786;2023-04-22T19:33:54;17322.88;;;-142.83;79.17
9129;BME280;4599;50.906;6.786;2023-04-22T19:37:55;17318.78;;;-142.83;79.27
9129;BME280;4599;50.906;6.786;2023-04-22T19:42:00;17277.88;;;-142.83;79.25
9129;BME280;4599;50.906;6.786;2023-04-22T19:46:03;17302.44;;;-142.83;79.45
9129;BME280;4599;50.906;6.786;2023-04-22T19:50:07;17310.63;;;-142.83;80.10
9129;BME280;4599;50.906;6.786;2023-04-22T19:54:09;17275.84;;;-142.83;80.65
9129;BME280;4599;50.906;6.786;2023-04-22T19:58:11;17241.06;;;-142.83;80.24
9129;BME280;4599;50.906;6.786;2023-04-22T20:02:15;17294.25;;;-142.83;80.89
9129;BME280;4599;50.906;6.786;2023-04-22T20:06:18;17257.44;;;-142.83;81.48
9129;BME280;4599;50.906;6.786;2023-04-22T20:10:19;17241.06;;;-142.83;81.21
9129;BME280;4599;50.906;6.786;2023-04-22T20:14:21;17249.25;;;-142.83;81.33
9129;BME280;4599;50.906;6.786;2023-04-22T20:18:24;17243.13;;;-142.83;81.65
9129;BME280;4599;50.906;6.786;2023-04-22T20:22:26;17263.56;;;-142.83;81.99
9129;BME280;4599;50.906;6.786;2023-04-22T20:26:27;17271.75;;;-142.83;81.89
9129;BME280;4599;50.906;6.786;2023-04-22T20:30:29;17220.63;;;-142.83;82.15
9129;BME280;4599;50.906;6.786;2023-04-22T20:34:32;17267.66;;;-142.83;82.28
9129;BME280;4599;50.906;6.786;2023-04-22T20:38:35;17245.16;;;-142.83;81.05
9129;BME280;4599;50.906;6.786;2023-04-22T20:42:36;17241.06;;;-142.83;79.06
9129;BME280;4599;50.906;6.786;2023-04-22T20:46:38;17265.63;;;-142.83;76.41
9129;BME280;4599;50.906;6.786;2023-04-22T20:50:41;17208.34;;;-142.83;78.46
9129;BME280;4599;50.906;6.786;2023-04-22T20:54:42;17241.06;;;-142.83;77.32
9129;BME280;4599;50.906;6.786;2023-04-22T20:58:45;17202.22;;;-142.83;77.96
9129;BME280;4599;50.906;6.786;2023-04-22T21:02:47;17220.63;;;-142.83;77.14
9129;BME280;4599;50.906;6.786;2023-04-22T21:06:51;17179.72;;;-142.83;78.05
9129;BME280;4599;50.906;6.786;2023-04-22T21:10:54;17216.53;;;-142.83;77.91
9129;BME280;4599;50.906;6.786;2023-04-22T21:14:56;17204.25;;;-142.83;76.31
9129;BME280;4599;50.906;6.786;2023-04-22T21:18:58;17189.94;;;-142.83;76.38
9129;BME280;4599;50.906;6.786;2023-04-22T21:23:01;17202.22;;;-142.83;76.57